createdAt,value
2024-01-10T00:02:38.726Z,-11.37
2024-01-10T00:07:42.833Z,-11.30
2024-01-10T00:12:46.458Z,-11.34
2024-01-10T00:17:49.283Z,-11.39
2024-01-10T00:22:52.392Z,-11.48
2024-01-10T00:27:55.383Z,-11.41
2024-01-10T00:32:58.368Z,-11.52
2024-01-10T00:38:02.417Z,-11.62
2024-01-10T00:43:05.628Z,-11.55
2024-01-10T00:48:10.251Z,-11.53
2024-01-10T00:53:13.166Z,-11.59
2024-01-10T00:58:16.874Z,-11.56
2024-01-10T01:03:19.513Z,-11.58
2024-01-10T01:08:22.623Z,-11.69
2024-01-10T01:13:25.526Z,-11.78
2024-01-10T01:18:28.527Z,-11.80
2024-01-10T01:23:38.936Z,-11.80
2024-01-10T01:28:46.061Z,-11.88
2024-01-10T01:33:49.077Z,-12.22
2024-01-10T01:38:52.943Z,-12.25
2024-01-10T01:43:55.793Z,-11.98
2024-01-10T01:48:59.743Z,-11.73
2024-01-10T01:54:02.617Z,-11.54
2024-01-10T01:59:09.822Z,-11.34
2024-01-10T02:04:13.276Z,-11.27
2024-01-10T02:09:17.788Z,-11.17
2024-01-10T02:14:20.876Z,-11.11
2024-01-10T02:19:25.369Z,-11.11
2024-01-10T02:24:28.246Z,-11.15
2024-01-10T02:29:33.057Z,-11.13
2024-01-10T02:34:35.849Z,-11.04
2024-01-10T02:39:39.693Z,-10.91
2024-01-10T02:44:42.434Z,-10.80
2024-01-10T02:49:45.626Z,-10.83
2024-01-10T02:54:48.408Z,-10.77
2024-01-10T02:59:51.489Z,-10.92
2024-01-10T03:04:54.339Z,-10.96
2024-01-10T03:09:57.258Z,-10.91
2024-01-10T03:15:00.324Z,-10.86
2024-01-10T03:20:04.998Z,-10.94
2024-01-10T03:25:07.972Z,-10.95
2024-01-10T03:30:11.883Z,-10.96
2024-01-10T03:35:14.954Z,-10.88
2024-01-10T03:40:17.809Z,-11.15
2024-01-10T03:45:24.401Z,-11.19
2024-01-10T03:50:28.672Z,-11.30
2024-01-10T03:55:31.368Z,-11.34
2024-01-10T04:00:35.145Z,-11.25
2024-01-10T04:05:38.109Z,-11.21
2024-01-10T04:10:42.246Z,-11.12
2024-01-10T04:15:45.099Z,-10.97
2024-01-10T04:20:51.058Z,-11.02
2024-01-10T04:25:53.794Z,-10.95
2024-01-10T04:30:57.466Z,-10.96
2024-01-10T04:36:00.380Z,-11.10
2024-01-10T04:41:03.536Z,-10.97
2024-01-10T04:46:06.495Z,-10.88
2024-01-10T04:51:09.896Z,-10.65
2024-01-10T04:56:12.851Z,-10.44
2024-01-10T05:01:17.084Z,-10.34
2024-01-10T05:06:19.995Z,-10.44
2024-01-10T05:11:23.344Z,-10.23
2024-01-10T05:16:26.304Z,-10.33
2024-01-10T05:21:29.433Z,-10.39
2024-01-10T05:26:32.230Z,-10.19
2024-01-10T05:31:36.500Z,-9.92
2024-01-10T05:36:39.326Z,-9.85
2024-01-10T05:41:46.745Z,-9.70
2024-01-10T05:46:49.774Z,-9.47
2024-01-10T05:51:53.983Z,-9.43
2024-01-10T05:56:56.856Z,-9.17
2024-01-10T06:02:00.355Z,-9.03
2024-01-10T06:07:05.353Z,-8.97
2024-01-10T06:12:09.481Z,-8.78
2024-01-10T06:17:12.368Z,-8.53
2024-01-10T06:22:16.068Z,-8.50
2024-01-10T06:27:19.876Z,-8.51
2024-01-10T06:32:25.173Z,-8.43
2024-01-10T06:37:29.166Z,-8.14
2024-01-10T06:42:32.737Z,-8.11
2024-01-10T06:47:35.726Z,-8.12
2024-01-10T06:52:39.504Z,-7.89
2024-01-10T06:57:42.343Z,-7.68
2024-01-10T07:02:45.861Z,-7.76
2024-01-10T07:07:48.798Z,-7.74
2024-01-10T07:12:53.274Z,-7.76
2024-01-10T07:17:56.096Z,-7.76
2024-01-10T07:23:00.640Z,-7.73
2024-01-10T07:28:03.465Z,-7.36
2024-01-10T07:33:08.600Z,-7.61
2024-01-10T07:38:11.603Z,-7.43
2024-01-10T07:43:14.852Z,-7.49
2024-01-10T07:48:17.804Z,-7.37
2024-01-10T07:53:21.681Z,-7.32
2024-01-10T07:58:24.575Z,-7.26
2024-01-10T08:03:27.743Z,-7.24
2024-01-10T08:08:30.656Z,-7.24
2024-01-10T08:13:34.000Z,-7.19
2024-01-10T08:18:36.996Z,-6.85
2024-01-10T08:23:40.032Z,-6.64
2024-01-10T08:28:44.225Z,-6.80
2024-01-10T08:33:48.312Z,-6.86
2024-01-10T08:38:52.112Z,-6.68
2024-01-10T08:43:56.322Z,-6.40
2024-01-10T08:48:59.333Z,-6.10
2024-01-10T08:54:03.776Z,-5.95
2024-01-10T08:59:07.222Z,-5.81
2024-01-10T09:04:11.259Z,-5.48
2024-01-10T09:09:14.663Z,-5.44
2024-01-10T09:14:18.198Z,-5.20
2024-01-10T09:19:21.282Z,-5.11
2024-01-10T09:24:29.333Z,-4.87
2024-01-10T09:29:33.149Z,-4.89
2024-01-10T09:34:36.171Z,-4.31
2024-01-10T09:39:39.077Z,-3.45
2024-01-10T09:44:43.613Z,-3.68
2024-01-10T09:49:47.904Z,-4.12
2024-01-10T09:54:56.628Z,-4.49
2024-01-10T09:59:59.718Z,-4.53
2024-01-10T10:05:05.891Z,-4.59
2024-01-10T10:10:10.300Z,-4.31
2024-01-10T10:15:18.383Z,-4.46
2024-01-10T10:20:26.586Z,-4.46
2024-01-10T10:25:37.411Z,-4.36
2024-01-10T10:30:40.249Z,-4.24
2024-01-10T10:35:46.472Z,-4.07
2024-01-10T10:40:52.267Z,-3.99
2024-01-10T10:45:58.540Z,-3.99
2024-01-10T10:51:10.415Z,-3.94
2024-01-10T10:56:14.887Z,-4.19
2024-01-10T11:01:18.621Z,-4.16
2024-01-10T11:06:22.846Z,-4.11
2024-01-10T11:11:38.900Z,-3.96
2024-01-10T11:17:19.870Z,-3.75
2024-01-10T11:23:07.763Z,-3.62
2024-01-10T11:28:15.194Z,-3.65
2024-01-10T11:33:32.827Z,-3.57
2024-01-10T11:38:39.851Z,-3.64
2024-01-10T11:43:42.674Z,-3.71
2024-01-10T11:48:45.669Z,-3.54
2024-01-10T11:53:48.652Z,-3.48
2024-01-10T11:59:12.616Z,-3.37
2024-01-10T12:04:23.838Z,-3.22
2024-01-10T12:09:33.932Z,-3.24
2024-01-10T12:14:38.216Z,-3.03
2024-01-10T12:19:41.653Z,-3.15
2024-01-10T12:24:47.038Z,-3.05
2024-01-10T12:29:54.342Z,-2.92
2024-01-10T12:35:05.715Z,-3.04
2024-01-10T12:40:11.471Z,-3.06
2024-01-10T12:45:33.155Z,-2.89
2024-01-10T12:50:37.580Z,-2.78
2024-01-10T12:55:47.468Z,-2.72
2024-01-10T13:00:54.544Z,-2.55
2024-01-10T13:06:02.209Z,-2.53
2024-01-10T13:11:10.129Z,-2.47
2024-01-10T13:16:14.716Z,-2.45
2024-01-10T13:21:21.707Z,-2.30
2024-01-10T13:26:26.524Z,-2.27
2024-01-10T13:31:31.165Z,-2.35
2024-01-10T13:36:34.010Z,-2.26
2024-01-10T13:41:37.321Z,-2.03
2024-01-10T13:46:40.336Z,-1.89
2024-01-10T13:51:46.417Z,-1.79
2024-01-10T13:56:49.379Z,-1.64
2024-01-10T14:01:52.902Z,-1.43
2024-01-10T14:06:55.711Z,-1.35
2024-01-10T14:11:59.091Z,-1.27
2024-01-10T14:17:02.276Z,-1.05
2024-01-10T14:22:13.701Z,-0.89
2024-01-10T14:27:20.593Z,-0.68
2024-01-10T14:32:24.218Z,-0.53
2024-01-10T14:37:33.268Z,-0.60
2024-01-10T14:42:38.875Z,-0.71
2024-01-10T14:47:42.192Z,-0.75
2024-01-10T14:52:45.558Z,-0.99
2024-01-10T14:57:49.206Z,-1.49
2024-01-10T15:02:53.177Z,-2.17
2024-01-10T15:07:56.144Z,-2.24
2024-01-10T15:12:59.792Z,-2.50
2024-01-10T15:18:02.676Z,-3.07
2024-01-10T15:23:05.818Z,-3.36
2024-01-10T15:28:11.225Z,-3.55
2024-01-10T15:33:15.205Z,-3.57
2024-01-10T15:38:18.186Z,-3.81
2024-01-10T15:43:22.239Z,-4.03
2024-01-10T15:48:25.500Z,-4.74
2024-01-10T15:53:30.023Z,-5.25
2024-01-10T15:58:34.360Z,-5.63
2024-01-10T16:03:38.284Z,-5.86
2024-01-10T16:08:41.700Z,-6.17
2024-01-10T16:13:46.853Z,-6.45
2024-01-10T16:18:50.557Z,-6.73
2024-01-10T16:23:55.310Z,-6.93
2024-01-10T16:28:58.018Z,-7.10
2024-01-10T16:34:01.955Z,-7.21
2024-01-10T16:39:04.798Z,-7.41
2024-01-10T16:44:08.001Z,-7.76
2024-01-10T16:49:11.580Z,-7.83
2024-01-10T16:54:14.201Z,-8.01
2024-01-10T16:59:17.173Z,-8.12
2024-01-10T17:04:21.880Z,-8.28
2024-01-10T17:09:24.854Z,-8.50
2024-01-10T17:14:28.586Z,-8.66
2024-01-10T17:19:31.453Z,-8.75
2024-01-10T17:24:35.029Z,-8.91
2024-01-10T17:29:38.113Z,-9.09
2024-01-10T17:34:42.059Z,-9.26
2024-01-10T17:39:50.479Z,-9.23
2024-01-10T17:44:57.630Z,-9.48
2024-01-10T17:50:00.502Z,-9.66
2024-01-10T17:55:05.787Z,-9.62
2024-01-10T18:00:10.991Z,-9.62
2024-01-10T18:05:17.533Z,-9.52
2024-01-10T18:10:20.553Z,-9.78
2024-01-10T18:15:23.567Z,-9.69
2024-01-10T18:20:26.341Z,-9.87
2024-01-10T18:25:31.765Z,-9.90
2024-01-10T18:30:35.539Z,-10.04
2024-01-10T18:35:38.756Z,-10.13
2024-01-10T18:40:42.418Z,-10.19
2024-01-10T18:45:45.408Z,-10.21
2024-01-10T18:50:48.213Z,-10.28
2024-01-10T18:55:51.252Z,-10.35
2024-01-10T19:00:54.065Z,-10.47
2024-01-10T19:05:57.364Z,-10.41
2024-01-10T19:11:01.790Z,-10.47
2024-01-10T19:16:09.341Z,-10.51
2024-01-10T19:21:12.214Z,-10.44
2024-01-10T19:26:26.278Z,-10.49
2024-01-10T19:31:29.084Z,-10.60
2024-01-10T19:36:33.900Z,-10.68
2024-01-10T19:41:36.894Z,-10.79
2024-01-10T19:46:41.092Z,-10.78
2024-01-10T19:51:46.809Z,-10.95
2024-01-10T19:56:49.974Z,-10.98
2024-01-10T20:01:52.765Z,-11.00
2024-01-10T20:06:56.698Z,-11.18
2024-01-10T20:11:59.488Z,-11.05
2024-01-10T20:17:02.408Z,-11.08
2024-01-10T20:22:05.476Z,-11.14
2024-01-10T20:27:09.881Z,-11.08
2024-01-10T20:32:12.745Z,-11.03
2024-01-10T20:37:17.570Z,-11.20
2024-01-10T20:42:21.071Z,-11.03
2024-01-10T20:47:28.704Z,-11.02
2024-01-10T20:52:31.609Z,-10.92
2024-01-10T20:57:35.249Z,-11.04
2024-01-10T21:02:38.875Z,-11.04
2024-01-10T21:07:42.721Z,-11.12
2024-01-10T21:12:45.529Z,-11.07
2024-01-10T21:17:49.298Z,-11.12
2024-01-10T21:22:53.588Z,-11.16
2024-01-10T21:27:56.827Z,-11.16
2024-01-10T21:33:02.016Z,-11.29
2024-01-10T21:38:05.565Z,-11.42
2024-01-10T21:43:08.303Z,-11.58
2024-01-10T21:48:12.472Z,-11.40
2024-01-10T21:53:15.336Z,-11.54
2024-01-10T21:58:19.305Z,-11.59
2024-01-10T22:03:28.627Z,-11.52
2024-01-10T22:08:39.715Z,-11.61
2024-01-10T22:13:42.584Z,-11.79
2024-01-10T22:18:46.081Z,-12.00
2024-01-10T22:23:48.919Z,-12.05
2024-01-10T22:28:52.186Z,-11.98
2024-01-10T22:33:55.763Z,-11.96
2024-01-10T22:38:58.880Z,-11.96
2024-01-10T22:44:01.841Z,-11.73
2024-01-10T22:49:05.315Z,-11.64
2024-01-10T22:54:08.329Z,-11.79
2024-01-10T22:59:11.648Z,-11.74
2024-01-10T23:04:14.578Z,-11.69
2024-01-10T23:09:18.398Z,-11.63
2024-01-10T23:14:21.130Z,-11.78
2024-01-10T23:19:24.090Z,-11.63
2024-01-10T23:24:27.899Z,-11.64
2024-01-10T23:29:31.587Z,-11.52
2024-01-10T23:34:34.888Z,-11.63
2024-01-10T23:39:37.960Z,-11.57
2024-01-10T23:44:41.337Z,-11.67
2024-01-10T23:49:45.852Z,-11.82
2024-01-10T23:54:48.576Z,-11.75
2024-01-10T23:59:51.452Z,-11.86
